createdAt,value
2023-01-27T00:00:53.962Z,1.12
2023-01-27T00:01:53.938Z,1.15
2023-01-27T00:02:54.009Z,1.10
2023-01-27T00:03:53.935Z,1.14
2023-01-27T00:04:53.878Z,1.06
2023-01-27T00:05:53.844Z,1.07
2023-01-27T00:06:53.799Z,1.03
2023-01-27T00:07:53.807Z,1.03
2023-01-27T00:08:53.778Z,1.04
2023-01-27T00:09:53.777Z,1.00
2023-01-27T00:10:53.694Z,1.03
2023-01-27T00:11:53.690Z,1.03
2023-01-27T00:12:53.647Z,1.03
2023-01-27T00:13:53.645Z,1.04
2023-01-27T00:14:53.587Z,1.07
2023-01-27T00:15:53.630Z,1.08
2023-01-27T00:16:53.540Z,1.08
2023-01-27T00:17:53.516Z,1.14
2023-01-27T00:18:53.484Z,1.14
2023-01-27T00:19:53.460Z,1.08
2023-01-27T00:20:53.480Z,1.10
2023-01-27T00:21:53.402Z,1.06
2023-01-27T00:22:53.372Z,1.04
2023-01-27T00:23:53.358Z,1.07
2023-01-27T00:24:53.315Z,1.07
2023-01-27T00:25:53.301Z,1.14
2023-01-27T00:26:53.267Z,1.14
2023-01-27T00:27:53.273Z,1.16
2023-01-27T00:28:53.212Z,1.16
2023-01-27T00:29:53.186Z,1.18
2023-01-27T00:30:53.220Z,1.16
2023-01-27T00:31:53.175Z,1.18
2023-01-27T00:32:53.123Z,1.15
2023-01-27T00:33:53.074Z,1.16
2023-01-27T00:34:53.071Z,1.18
2023-01-27T00:35:53.028Z,1.14
2023-01-27T00:36:53.003Z,1.04
2023-01-27T00:37:52.968Z,1.16
2023-01-27T00:38:52.976Z,1.14
2023-01-27T00:39:52.928Z,1.15
2023-01-27T00:40:52.889Z,1.16
2023-01-27T00:41:52.859Z,1.15
2023-01-27T00:42:52.848Z,1.16
2023-01-27T00:43:52.814Z,1.21
2023-01-27T00:44:52.786Z,1.15
2023-01-27T00:45:52.774Z,1.16
2023-01-27T00:46:52.836Z,1.14
2023-01-27T00:47:52.700Z,1.15
2023-01-27T00:48:52.680Z,1.16
2023-01-27T00:49:52.640Z,1.18
2023-01-27T00:50:52.679Z,1.19
2023-01-27T00:51:52.599Z,1.19
2023-01-27T00:52:52.580Z,1.14
2023-01-27T00:53:52.541Z,1.21
2023-01-27T00:54:52.514Z,1.07
2023-01-27T00:55:52.504Z,1.16
2023-01-27T00:56:52.469Z,1.19
2023-01-27T00:57:52.469Z,1.16
2023-01-27T00:58:52.403Z,1.21
2023-01-27T00:59:52.395Z,1.19
2023-01-27T01:00:52.348Z,1.15
2023-01-27T01:01:52.349Z,1.16
2023-01-27T01:02:52.383Z,1.12
2023-01-27T01:03:52.274Z,1.18
2023-01-27T01:04:52.248Z,1.15
2023-01-27T01:05:52.216Z,1.12
2023-01-27T01:06:52.224Z,1.18
2023-01-27T01:07:52.170Z,1.16
2023-01-27T01:08:52.197Z,1.21
2023-01-27T01:09:52.200Z,1.22
2023-01-27T01:10:52.089Z,1.25
2023-01-27T01:11:52.057Z,1.21
2023-01-27T01:12:52.053Z,1.24
2023-01-27T01:13:53.747Z,1.24
2023-01-27T01:14:51.978Z,1.26
2023-01-27T01:15:51.978Z,1.22
2023-01-27T01:16:51.930Z,1.22
2023-01-27T01:17:51.889Z,1.29
2023-01-27T01:18:51.933Z,1.25
2023-01-27T01:19:51.857Z,1.21
2023-01-27T01:20:51.811Z,1.16
2023-01-27T01:21:51.792Z,1.21
2023-01-27T01:22:51.762Z,1.22
2023-01-27T01:23:51.848Z,1.21
2023-01-27T01:24:51.719Z,1.25
2023-01-27T01:25:51.683Z,1.21
2023-01-27T01:26:51.655Z,1.24
2023-01-27T01:27:51.627Z,1.28
2023-01-27T01:28:51.600Z,1.25
2023-01-27T01:29:51.579Z,1.29
2023-01-27T01:30:51.619Z,1.22
2023-01-27T01:31:51.521Z,1.32
2023-01-27T01:32:51.495Z,1.29
2023-01-27T01:33:51.469Z,1.26
2023-01-27T01:34:51.437Z,1.28
2023-01-27T01:35:51.403Z,1.28
2023-01-27T01:36:51.388Z,1.25
2023-01-27T01:37:51.354Z,1.15
2023-01-27T01:38:51.358Z,1.25
2023-01-27T01:39:51.312Z,1.29
2023-01-27T01:40:51.280Z,1.21
2023-01-27T01:41:51.253Z,1.25
2023-01-27T01:42:51.226Z,1.25
2023-01-27T01:43:51.191Z,1.26
2023-01-27T01:44:51.190Z,1.32
2023-01-27T01:45:51.172Z,1.28
2023-01-27T01:46:51.200Z,1.29
2023-01-27T01:47:51.095Z,1.26
2023-01-27T01:48:51.103Z,1.33
2023-01-27T01:49:51.030Z,1.29
2023-01-27T01:50:51.006Z,1.28
2023-01-27T01:51:50.983Z,1.26
2023-01-27T01:52:50.952Z,1.28
2023-01-27T01:53:50.929Z,1.26
2023-01-27T01:54:50.907Z,1.32
2023-01-27T01:55:50.877Z,1.34
2023-01-27T01:56:50.886Z,1.29
2023-01-27T01:57:50.827Z,1.26
2023-01-27T01:58:50.790Z,1.26
2023-01-27T01:59:50.771Z,1.33
2023-01-27T02:00:50.853Z,1.28
2023-01-27T02:01:50.730Z,1.29
2023-01-27T02:02:50.717Z,1.29
2023-01-27T02:03:50.661Z,1.24
2023-01-27T02:04:50.631Z,1.33
2023-01-27T02:05:50.622Z,1.33
2023-01-27T02:06:50.581Z,1.18
2023-01-27T02:07:50.552Z,1.26
2023-01-27T02:08:50.526Z,1.19
2023-01-27T02:09:50.498Z,1.19
2023-01-27T02:10:50.473Z,1.26
2023-01-27T02:11:50.441Z,1.25
2023-01-27T02:12:50.423Z,1.28
2023-01-27T02:13:50.387Z,1.26
2023-01-27T02:14:50.388Z,1.32
2023-01-27T02:15:50.327Z,1.24
2023-01-27T02:16:50.331Z,1.32
2023-01-27T02:17:50.285Z,1.18
2023-01-27T02:18:50.252Z,1.24
2023-01-27T02:19:50.247Z,1.29
2023-01-27T02:20:50.204Z,1.24
2023-01-27T02:21:50.180Z,1.29
2023-01-27T02:22:50.147Z,1.19
2023-01-27T02:23:50.148Z,1.26
2023-01-27T02:24:50.104Z,1.22
2023-01-27T02:25:50.077Z,1.19
2023-01-27T02:26:50.036Z,1.22
2023-01-27T02:27:50.012Z,1.34
2023-01-27T02:28:49.993Z,1.24
2023-01-27T02:29:49.956Z,1.25
2023-01-27T02:30:50.020Z,1.33
2023-01-27T02:31:50.103Z,1.33
2023-01-27T02:32:49.878Z,1.28
2023-01-27T02:33:49.854Z,1.24
2023-01-27T02:34:49.833Z,1.36
2023-01-27T02:35:49.793Z,1.26
2023-01-27T02:36:49.775Z,1.29
2023-01-27T02:37:49.755Z,1.28
2023-01-27T02:38:49.722Z,1.21
2023-01-27T02:39:49.692Z,1.29
2023-01-27T02:40:49.681Z,1.28
2023-01-27T02:41:49.640Z,1.34
2023-01-27T02:42:49.608Z,1.28
2023-01-27T02:43:49.610Z,1.28
2023-01-27T02:44:49.564Z,1.26
2023-01-27T02:45:49.608Z,1.33
2023-01-27T02:46:49.513Z,1.29
2023-01-27T02:47:49.473Z,1.32
2023-01-27T02:48:49.534Z,1.32
2023-01-27T02:49:49.415Z,1.28
2023-01-27T02:50:49.395Z,1.33
2023-01-27T02:51:49.382Z,1.26
2023-01-27T02:52:49.426Z,1.32
2023-01-27T02:53:49.323Z,1.25
2023-01-27T02:54:49.287Z,1.36
2023-01-27T02:55:49.259Z,1.37
2023-01-27T02:56:49.250Z,1.36
2023-01-27T02:57:49.206Z,1.32
2023-01-27T02:58:49.192Z,1.33
2023-01-27T02:59:49.239Z,1.36
2023-01-27T03:00:49.138Z,1.32
2023-01-27T03:01:49.800Z,1.32
2023-01-27T03:02:49.107Z,1.33
2023-01-27T03:03:49.041Z,1.28
2023-01-27T03:04:49.021Z,1.33
2023-01-27T03:05:48.995Z,1.34
2023-01-27T03:06:49.096Z,1.33
2023-01-27T03:07:48.967Z,1.34
2023-01-27T03:08:48.924Z,1.26
2023-01-27T03:09:48.895Z,1.32
2023-01-27T03:10:48.865Z,1.29
2023-01-27T03:11:48.831Z,1.36
2023-01-27T03:12:48.803Z,1.29
2023-01-27T03:13:48.798Z,1.32
2023-01-27T03:14:48.751Z,1.32
2023-01-27T03:15:48.738Z,1.28
2023-01-27T03:16:48.695Z,1.37
2023-01-27T03:17:48.663Z,1.36
2023-01-27T03:18:48.641Z,1.33
2023-01-27T03:19:48.612Z,1.37
2023-01-27T03:20:48.583Z,1.36
2023-01-27T03:21:48.747Z,1.39
2023-01-27T03:22:48.536Z,1.40
2023-01-27T03:23:48.513Z,1.40
2023-01-27T03:24:48.492Z,1.40
2023-01-27T03:25:48.546Z,1.29
2023-01-27T03:26:48.429Z,1.34
2023-01-27T03:27:48.398Z,1.36
2023-01-27T03:28:48.385Z,1.39
2023-01-27T03:29:48.346Z,1.43
2023-01-27T03:30:48.491Z,1.40
2023-01-27T03:31:48.449Z,1.40
2023-01-27T03:32:48.306Z,1.37
2023-01-27T03:33:48.237Z,1.36
2023-01-27T03:34:48.218Z,1.39
2023-01-27T03:35:48.198Z,1.34
2023-01-27T03:36:48.158Z,1.42
2023-01-27T03:37:48.138Z,1.40
2023-01-27T03:38:48.108Z,1.40
2023-01-27T03:39:48.080Z,1.36
2023-01-27T03:40:48.075Z,1.40
2023-01-27T03:41:48.024Z,1.36
2023-01-27T03:42:48.016Z,1.50
2023-01-27T03:43:47.969Z,1.42
2023-01-27T03:44:47.951Z,1.50
2023-01-27T03:45:47.953Z,1.46
2023-01-27T03:46:47.893Z,1.40
2023-01-27T03:47:47.860Z,1.42
2023-01-27T03:48:47.927Z,1.37
2023-01-27T03:49:47.813Z,1.42
2023-01-27T03:50:47.781Z,1.36
2023-01-27T03:51:47.758Z,1.39
2023-01-27T03:52:47.724Z,1.40
2023-01-27T03:53:47.706Z,1.36
2023-01-27T03:54:47.670Z,1.42
2023-01-27T03:55:47.644Z,1.50
2023-01-27T03:56:47.641Z,1.40
2023-01-27T03:57:47.589Z,1.39
2023-01-27T03:58:47.611Z,1.50
2023-01-27T03:59:47.539Z,1.50
2023-01-27T04:00:47.529Z,1.47
2023-01-27T04:01:47.529Z,1.47
2023-01-27T04:02:47.589Z,1.50
2023-01-27T04:03:47.450Z,1.55
2023-01-27T04:04:47.410Z,1.47
2023-01-27T04:05:47.377Z,1.47
2023-01-27T04:06:47.359Z,1.50
2023-01-27T04:07:47.319Z,1.47
2023-01-27T04:08:47.302Z,1.58
2023-01-27T04:09:47.265Z,1.46
2023-01-27T04:10:47.256Z,1.46
2023-01-27T04:11:47.217Z,1.46
2023-01-27T04:12:47.187Z,1.46
2023-01-27T04:13:47.178Z,1.54
2023-01-27T04:14:47.137Z,1.44
2023-01-27T04:15:47.109Z,1.57
2023-01-27T04:16:47.086Z,1.51
2023-01-27T04:17:47.061Z,1.47
2023-01-27T04:18:49.235Z,1.42
2023-01-27T04:19:47.000Z,1.58
2023-01-27T04:20:46.976Z,1.60
2023-01-27T04:21:46.952Z,1.55
2023-01-27T04:22:46.933Z,1.51
2023-01-27T04:23:46.893Z,1.47
2023-01-27T04:24:46.875Z,1.55
2023-01-27T04:25:46.832Z,1.46
2023-01-27T04:26:46.818Z,1.44
2023-01-27T04:27:46.780Z,1.54
2023-01-27T04:28:51.453Z,1.46
2023-01-27T04:29:46.788Z,1.51
2023-01-27T04:30:46.720Z,1.50
2023-01-27T04:32:46.655Z,1.43
2023-01-27T04:33:46.640Z,1.46
2023-01-27T04:34:46.606Z,1.44
2023-01-27T04:35:46.580Z,1.50
2023-01-27T04:36:46.558Z,1.46
2023-01-27T04:37:46.516Z,1.57
2023-01-27T04:38:46.498Z,1.51
2023-01-27T04:39:46.469Z,1.51
2023-01-27T04:40:46.453Z,1.52
2023-01-27T04:41:46.414Z,1.58
2023-01-27T04:42:46.390Z,1.51
2023-01-27T04:43:46.397Z,1.51
2023-01-27T04:44:46.339Z,1.50
2023-01-27T04:45:46.361Z,1.51
2023-01-27T04:46:46.295Z,1.51
2023-01-27T04:47:46.256Z,1.58
2023-01-27T04:48:46.225Z,1.57
2023-01-27T04:49:46.198Z,1.55
2023-01-27T04:50:46.166Z,1.54
2023-01-27T04:51:47.095Z,1.54
2023-01-27T04:52:46.122Z,1.58
2023-01-27T04:53:46.090Z,1.54
2023-01-27T04:54:46.057Z,1.55
2023-01-27T04:55:46.040Z,1.57
2023-01-27T04:56:46.004Z,1.57
2023-01-27T04:57:45.999Z,1.51
2023-01-27T04:58:45.959Z,1.61
2023-01-27T04:59:45.941Z,1.51
2023-01-27T05:00:45.914Z,1.57
2023-01-27T05:01:45.918Z,1.58
2023-01-27T05:02:45.891Z,1.58
2023-01-27T05:03:45.823Z,1.54
2023-01-27T05:04:45.796Z,1.58
2023-01-27T05:05:45.777Z,1.58
2023-01-27T05:06:45.740Z,1.51
2023-01-27T05:07:45.723Z,1.58
2023-01-27T05:08:45.689Z,1.57
2023-01-27T05:09:45.675Z,1.54
2023-01-27T05:10:45.637Z,1.60
2023-01-27T05:11:45.643Z,1.57
2023-01-27T05:12:45.578Z,1.52
2023-01-27T05:13:45.564Z,1.57
2023-01-27T05:14:45.551Z,1.55
2023-01-27T05:15:45.533Z,1.58
2023-01-27T05:16:45.790Z,1.57
2023-01-27T05:17:45.452Z,1.52
2023-01-27T05:18:45.425Z,1.54
2023-01-27T05:19:45.403Z,1.58
2023-01-27T05:20:45.371Z,1.57
2023-01-27T05:21:45.347Z,1.58
2023-01-27T05:22:45.341Z,1.54
2023-01-27T05:23:45.335Z,1.54
2023-01-27T05:24:45.296Z,1.57
2023-01-27T05:25:45.246Z,1.54
2023-01-27T05:26:45.222Z,1.60
2023-01-27T05:27:45.184Z,1.50
2023-01-27T05:28:45.150Z,1.55
2023-01-27T05:29:45.156Z,1.55
2023-01-27T05:30:45.166Z,1.58
2023-01-27T05:31:45.130Z,1.57
2023-01-27T05:32:45.050Z,1.55
2023-01-27T05:33:45.026Z,1.51
2023-01-27T05:34:44.995Z,1.58
2023-01-27T05:35:44.969Z,1.54
2023-01-27T05:36:44.959Z,1.52
2023-01-27T05:37:44.914Z,1.58
2023-01-27T05:38:44.893Z,1.58
2023-01-27T05:39:44.872Z,1.54
2023-01-27T05:40:44.836Z,1.52
2023-01-27T05:41:44.829Z,1.60
2023-01-27T05:42:44.781Z,1.61
2023-01-27T05:43:44.785Z,1.60
2023-01-27T05:44:44.718Z,1.62
2023-01-27T05:45:44.732Z,1.58
2023-01-27T05:46:44.716Z,1.64
2023-01-27T05:47:44.650Z,1.57
2023-01-27T05:48:44.631Z,1.72
2023-01-27T05:49:44.611Z,1.69
2023-01-27T05:50:44.566Z,1.65
2023-01-27T05:51:44.579Z,1.69
2023-01-27T05:52:44.516Z,1.71
2023-01-27T05:53:44.498Z,1.69
2023-01-27T05:54:44.463Z,1.57
2023-01-27T05:55:44.433Z,1.68
2023-01-27T05:56:44.416Z,1.69
2023-01-27T05:57:44.392Z,1.69
2023-01-27T05:58:44.365Z,1.69
2023-01-27T05:59:44.338Z,1.72
2023-01-27T06:00:44.298Z,1.68
2023-01-27T06:01:44.313Z,1.72
2023-01-27T06:02:44.296Z,1.73
2023-01-27T06:03:44.239Z,1.71
2023-01-27T06:04:44.193Z,1.72
2023-01-27T06:05:44.164Z,1.78
2023-01-27T06:06:44.147Z,1.80
2023-01-27T06:07:44.123Z,1.71
2023-01-27T06:08:44.083Z,1.82
2023-01-27T06:09:44.074Z,1.85
2023-01-27T06:10:44.039Z,1.76
2023-01-27T06:11:44.001Z,1.71
2023-01-27T06:12:43.971Z,1.71
2023-01-27T06:13:43.954Z,1.80
2023-01-27T06:14:43.941Z,1.85
2023-01-27T06:15:43.911Z,1.73
2023-01-27T06:16:43.929Z,1.79
2023-01-27T06:17:43.840Z,1.87
2023-01-27T06:18:43.808Z,1.85
2023-01-27T06:19:43.804Z,1.85
2023-01-27T06:20:43.767Z,1.71
2023-01-27T06:21:43.744Z,1.73
2023-01-27T06:22:43.707Z,1.73
2023-01-27T06:23:43.679Z,1.76
2023-01-27T06:24:43.664Z,1.73
2023-01-27T06:25:43.657Z,1.71
2023-01-27T06:26:43.592Z,1.75
2023-01-27T06:27:43.578Z,1.78
2023-01-27T06:28:43.554Z,1.76
2023-01-27T06:29:43.517Z,1.73
2023-01-27T06:30:43.504Z,1.73
2023-01-27T06:31:43.511Z,1.72
2023-01-27T06:32:43.440Z,1.72
2023-01-27T06:33:43.410Z,1.78
2023-01-27T06:34:43.382Z,1.71
2023-01-27T06:35:43.360Z,1.76
2023-01-27T06:36:43.330Z,1.75
2023-01-27T06:37:43.306Z,1.72
2023-01-27T06:38:43.268Z,1.75
2023-01-27T06:39:43.255Z,1.68
2023-01-27T06:40:43.225Z,1.68
2023-01-27T06:41:43.207Z,1.69
2023-01-27T06:42:43.179Z,1.69
2023-01-27T06:43:43.149Z,1.65
2023-01-27T06:44:43.120Z,1.57
2023-01-27T06:45:43.099Z,1.64
2023-01-27T06:46:43.139Z,1.61
2023-01-27T06:47:43.040Z,1.58
2023-01-27T06:48:43.025Z,1.58
2023-01-27T06:49:42.989Z,1.57
2023-01-27T06:50:42.974Z,1.64
2023-01-27T06:51:42.948Z,1.69
2023-01-27T06:52:42.899Z,1.71
2023-01-27T06:53:42.974Z,1.73
2023-01-27T06:54:42.855Z,1.72
2023-01-27T06:55:42.837Z,1.71
2023-01-27T06:56:42.804Z,1.72
2023-01-27T06:57:42.771Z,1.68
2023-01-27T06:58:42.748Z,1.72
2023-01-27T06:59:42.756Z,1.69
2023-01-27T07:00:42.691Z,1.76
2023-01-27T07:01:42.732Z,1.71
2023-01-27T07:02:42.719Z,1.68
2023-01-27T07:03:44.705Z,1.68
2023-01-27T07:04:42.587Z,1.68
2023-01-27T07:05:42.555Z,1.72
2023-01-27T07:06:42.530Z,1.78
2023-01-27T07:07:42.501Z,1.71
2023-01-27T07:08:42.495Z,1.71
2023-01-27T07:09:52.066Z,1.71
2023-01-27T07:10:42.421Z,1.68
2023-01-27T07:11:42.400Z,1.78
2023-01-27T07:12:42.364Z,1.80
2023-01-27T07:13:42.342Z,1.73
2023-01-27T07:14:42.318Z,1.73
2023-01-27T07:15:42.338Z,1.89
2023-01-27T07:16:42.282Z,1.73
2023-01-27T07:17:42.238Z,1.85
2023-01-27T07:18:42.202Z,1.76
2023-01-27T07:19:42.178Z,1.72
2023-01-27T07:20:42.173Z,1.71
2023-01-27T07:21:42.128Z,1.73
2023-01-27T07:22:42.108Z,1.73
2023-01-27T07:23:42.105Z,1.73
2023-01-27T07:24:42.063Z,1.62
2023-01-27T07:25:42.022Z,1.79
2023-01-27T07:26:42.007Z,1.89
2023-01-27T07:27:41.988Z,1.85
2023-01-27T07:28:41.954Z,1.79
2023-01-27T07:29:41.931Z,1.80
2023-01-27T07:30:41.909Z,1.87
2023-01-27T07:31:41.958Z,1.90
2023-01-27T07:32:41.859Z,1.78
2023-01-27T07:33:41.816Z,1.90
2023-01-27T07:34:41.781Z,1.80
2023-01-27T07:35:41.761Z,1.82
2023-01-27T07:36:41.722Z,1.85
2023-01-27T07:37:41.703Z,1.97
2023-01-27T07:38:41.715Z,1.78
2023-01-27T07:39:41.650Z,1.87
2023-01-27T07:40:41.636Z,1.91
2023-01-27T07:41:41.602Z,1.91
2023-01-27T07:42:41.583Z,2.08
2023-01-27T07:43:41.568Z,1.98
2023-01-27T07:44:41.515Z,2.02
2023-01-27T07:45:41.514Z,2.06
2023-01-27T07:46:41.463Z,2.10
2023-01-27T07:47:41.440Z,2.15
2023-01-27T07:48:41.419Z,2.17
2023-01-27T07:49:41.398Z,2.13
2023-01-27T07:50:41.370Z,2.20
2023-01-27T07:51:41.342Z,2.28
2023-01-27T07:52:41.307Z,2.22
2023-01-27T07:53:41.282Z,2.33
2023-01-27T07:54:41.257Z,2.40
2023-01-27T07:55:41.244Z,2.44
2023-01-27T07:56:41.210Z,2.51
2023-01-27T07:57:41.177Z,2.56
2023-01-27T07:58:41.165Z,2.52
2023-01-27T07:59:41.128Z,2.61
2023-01-27T08:00:41.143Z,2.59
2023-01-27T08:01:41.071Z,2.64
2023-01-27T08:02:41.052Z,2.71
2023-01-27T08:03:41.021Z,2.69
2023-01-27T08:04:52.588Z,2.76
2023-01-27T08:05:40.981Z,2.79
2023-01-27T08:06:40.949Z,2.79
2023-01-27T08:07:40.960Z,2.73
2023-01-27T08:08:40.907Z,2.77
2023-01-27T08:09:40.873Z,2.67
2023-01-27T08:10:40.833Z,2.73
2023-01-27T08:11:40.818Z,2.71
2023-01-27T08:12:40.787Z,2.69
2023-01-27T08:13:40.768Z,2.63
2023-01-27T08:14:40.836Z,2.55
2023-01-27T08:15:40.711Z,2.49
2023-01-27T08:16:40.751Z,2.53
2023-01-27T08:17:40.657Z,2.49
2023-01-27T08:18:40.627Z,2.49
2023-01-27T08:19:40.613Z,2.58
2023-01-27T08:20:40.595Z,2.52
2023-01-27T08:21:40.555Z,2.63
2023-01-27T08:22:40.529Z,2.59
2023-01-27T08:23:40.539Z,2.49
2023-01-27T08:24:40.467Z,2.51
2023-01-27T08:25:40.450Z,2.56
2023-01-27T08:26:40.416Z,2.49
2023-01-27T08:27:40.404Z,2.53
2023-01-27T08:28:40.365Z,2.51
2023-01-27T08:29:40.367Z,2.45
2023-01-27T08:30:40.349Z,2.48
2023-01-27T08:31:40.322Z,2.48
2023-01-27T08:32:40.261Z,2.49
2023-01-27T08:33:40.239Z,2.49
2023-01-27T08:34:40.228Z,2.49
2023-01-27T08:35:40.192Z,2.46
2023-01-27T08:36:40.162Z,2.49
2023-01-27T08:37:40.138Z,2.48
2023-01-27T08:38:40.102Z,2.55
2023-01-27T08:39:40.087Z,2.53
2023-01-27T08:40:40.049Z,2.61
2023-01-27T08:41:40.035Z,2.63
2023-01-27T08:42:40.014Z,2.66
2023-01-27T08:43:40.002Z,2.61
2023-01-27T08:44:39.948Z,2.64
2023-01-27T08:45:39.956Z,2.67
2023-01-27T08:46:39.914Z,2.73
2023-01-27T08:47:39.885Z,2.76
2023-01-27T08:48:39.871Z,2.77
2023-01-27T08:49:39.834Z,2.79
2023-01-27T08:50:39.794Z,2.81
2023-01-27T08:51:39.769Z,2.91
2023-01-27T08:52:39.746Z,2.87
2023-01-27T08:53:39.722Z,2.85
2023-01-27T08:54:39.699Z,2.81
2023-01-27T08:55:39.715Z,2.85
2023-01-27T08:56:39.661Z,3.00
2023-01-27T08:57:39.643Z,2.84
2023-01-27T08:58:39.587Z,2.91
2023-01-27T08:59:39.567Z,2.84
2023-01-27T09:00:39.534Z,2.89
2023-01-27T09:01:39.562Z,2.85
2023-01-27T09:02:39.522Z,2.89
2023-01-27T09:03:39.455Z,2.85
2023-01-27T09:04:39.483Z,2.88
2023-01-27T09:05:39.404Z,2.82
2023-01-27T09:06:39.384Z,2.91
2023-01-27T09:07:39.373Z,2.92
2023-01-27T09:08:39.398Z,2.95
2023-01-27T09:09:39.310Z,2.94
2023-01-27T09:10:39.279Z,3.06
2023-01-27T09:11:39.259Z,3.10
2023-01-27T09:12:39.235Z,3.10
2023-01-27T09:13:39.200Z,3.10
2023-01-27T09:14:39.174Z,3.09
2023-01-27T09:15:39.173Z,3.13
2023-01-27T09:16:39.123Z,3.16
2023-01-27T09:17:39.093Z,3.10
2023-01-27T09:18:39.076Z,3.07
2023-01-27T09:19:39.051Z,3.07
2023-01-27T09:20:39.022Z,3.07
2023-01-27T09:21:38.990Z,3.05
2023-01-27T09:22:38.969Z,3.09
2023-01-27T09:23:38.948Z,3.03
2023-01-27T09:24:38.928Z,3.07
2023-01-27T09:25:38.947Z,3.05
2023-01-27T09:26:38.885Z,3.16
2023-01-27T09:27:40.179Z,3.16
2023-01-27T09:28:38.824Z,3.16
2023-01-27T09:29:38.798Z,3.24
2023-01-27T09:30:40.852Z,3.20
2023-01-27T09:31:38.797Z,3.31
2023-01-27T09:32:38.727Z,3.28
2023-01-27T09:33:38.760Z,3.33
2023-01-27T09:34:38.668Z,3.39
2023-01-27T09:35:38.664Z,3.36
2023-01-27T09:36:38.612Z,3.20
2023-01-27T09:37:38.609Z,3.27
2023-01-27T09:38:38.564Z,3.30
2023-01-27T09:39:38.528Z,3.34
2023-01-27T09:40:38.544Z,3.31
2023-01-27T09:41:38.484Z,3.39
2023-01-27T09:42:38.465Z,3.30
2023-01-27T09:43:38.436Z,3.27
2023-01-27T09:44:38.404Z,3.27
2023-01-27T09:45:38.378Z,3.27
2023-01-27T09:46:38.367Z,3.27
2023-01-27T09:47:38.344Z,3.25
2023-01-27T09:48:38.297Z,3.25
2023-01-27T09:49:38.268Z,3.21
2023-01-27T09:50:38.252Z,3.20
2023-01-27T09:51:38.226Z,3.13
2023-01-27T09:52:47.222Z,3.07
2023-01-27T09:53:38.181Z,3.10
2023-01-27T09:54:38.142Z,3.09
2023-01-27T09:55:38.118Z,3.06
2023-01-27T09:56:38.117Z,3.15
2023-01-27T09:57:38.077Z,3.10
2023-01-27T09:58:38.047Z,3.21
2023-01-27T09:59:38.020Z,3.25
2023-01-27T10:00:37.995Z,3.27
2023-01-27T10:01:38.048Z,3.24
2023-01-27T10:02:37.940Z,3.24
2023-01-27T10:03:37.914Z,3.21
2023-01-27T10:04:37.950Z,3.42
2023-01-27T10:05:37.864Z,3.42
2023-01-27T10:06:37.844Z,3.46
2023-01-27T10:07:37.804Z,3.42
2023-01-27T10:08:37.790Z,3.40
2023-01-27T10:09:37.761Z,3.46
2023-01-27T10:10:37.755Z,3.46
2023-01-27T10:11:37.709Z,3.44
2023-01-27T10:12:37.705Z,3.39
2023-01-27T10:13:37.656Z,3.43
2023-01-27T10:14:37.669Z,3.46
2023-01-27T10:15:37.600Z,3.54
2023-01-27T10:16:37.656Z,3.53
2023-01-27T10:17:37.549Z,3.64
2023-01-27T10:18:37.533Z,3.67
2023-01-27T10:19:37.503Z,3.67
2023-01-27T10:20:37.476Z,3.78
2023-01-27T10:21:37.450Z,3.72
2023-01-27T10:22:37.436Z,3.68
2023-01-27T10:23:37.429Z,3.70
2023-01-27T10:24:37.374Z,3.75
2023-01-27T10:25:37.361Z,3.82
2023-01-27T10:26:37.325Z,3.92
2023-01-27T10:27:37.294Z,4.04
2023-01-27T10:28:37.300Z,4.10
2023-01-27T10:29:37.283Z,4.18
2023-01-27T10:30:37.274Z,4.16
2023-01-27T10:31:37.313Z,4.16
2023-01-27T10:32:37.172Z,4.21
2023-01-27T10:33:37.143Z,4.15
2023-01-27T10:34:37.132Z,4.24
2023-01-27T10:35:37.093Z,4.29
2023-01-27T10:36:37.090Z,4.26
2023-01-27T10:37:37.042Z,4.16
2023-01-27T10:38:37.028Z,4.16
2023-01-27T10:39:36.986Z,4.22
2023-01-27T10:40:36.976Z,4.15
2023-01-27T10:41:36.933Z,4.15
2023-01-27T10:42:36.958Z,4.19
2023-01-27T10:43:36.897Z,4.16
2023-01-27T10:44:36.866Z,4.15
2023-01-27T10:45:36.858Z,4.16
2023-01-27T10:46:36.854Z,4.26
2023-01-27T10:47:36.783Z,4.28
2023-01-27T10:48:36.770Z,4.26
2023-01-27T10:49:36.761Z,4.36
2023-01-27T10:50:36.717Z,4.36
2023-01-27T10:51:36.694Z,4.25
2023-01-27T10:52:36.667Z,4.16
2023-01-27T10:53:36.630Z,4.15
2023-01-27T10:54:36.615Z,4.28
2023-01-27T10:55:36.613Z,4.33
2023-01-27T10:56:36.577Z,4.25
2023-01-27T10:57:36.537Z,4.32
2023-01-27T10:58:36.514Z,4.26
2023-01-27T10:59:36.487Z,4.36
2023-01-27T11:01:19.472Z,4.40
2023-01-27T11:01:36.512Z,4.46
2023-01-27T11:02:36.414Z,4.47
2023-01-27T11:03:36.394Z,4.44
2023-01-27T11:04:36.424Z,4.28
2023-01-27T11:05:36.341Z,4.36
2023-01-27T11:06:36.312Z,4.25
2023-01-27T11:07:36.297Z,4.19
2023-01-27T11:08:36.284Z,4.16
2023-01-27T11:09:36.267Z,4.15
2023-01-27T11:10:36.215Z,4.14
2023-01-27T11:11:36.195Z,4.00
2023-01-27T11:12:36.160Z,4.03
2023-01-27T11:13:36.130Z,4.04
2023-01-27T11:14:38.526Z,3.98
2023-01-27T11:15:36.096Z,3.96
2023-01-27T11:16:36.155Z,4.10
2023-01-27T11:17:36.073Z,4.08
2023-01-27T11:18:36.047Z,4.12
2023-01-27T11:19:36.003Z,4.12
2023-01-27T11:20:35.963Z,4.06
2023-01-27T11:21:35.971Z,4.16
2023-01-27T11:22:35.921Z,4.12
2023-01-27T11:23:35.877Z,4.22
2023-01-27T11:24:35.866Z,4.16
2023-01-27T11:25:35.878Z,4.15
2023-01-27T11:26:35.804Z,4.18
2023-01-27T11:27:35.773Z,4.18
2023-01-27T11:28:35.754Z,4.14
2023-01-27T11:29:35.730Z,4.12
2023-01-27T11:30:35.739Z,4.15
2023-01-27T11:31:37.739Z,4.18
2023-01-27T11:32:35.701Z,4.15
2023-01-27T11:33:35.622Z,4.21
2023-01-27T11:34:35.623Z,4.16
2023-01-27T11:35:35.600Z,4.14
2023-01-27T11:36:35.561Z,4.01
2023-01-27T11:37:35.530Z,4.10
2023-01-27T11:38:35.499Z,4.06
2023-01-27T11:39:35.474Z,4.00
2023-01-27T11:40:35.477Z,3.96
2023-01-27T11:41:35.422Z,3.96
2023-01-27T11:42:35.399Z,3.96
2023-01-27T11:43:35.371Z,4.01
2023-01-27T11:44:35.351Z,4.01
2023-01-27T11:45:35.378Z,4.00
2023-01-27T11:46:35.291Z,4.10
2023-01-27T11:47:35.313Z,4.10
2023-01-27T11:48:35.249Z,4.15
2023-01-27T11:49:35.216Z,4.04
2023-01-27T11:50:35.202Z,4.12
2023-01-27T11:51:35.172Z,4.16
2023-01-27T11:52:35.140Z,4.16
2023-01-27T11:53:35.131Z,4.18
2023-01-27T11:54:35.092Z,4.24
2023-01-27T11:55:35.087Z,4.22
2023-01-27T11:56:35.047Z,4.25
2023-01-27T11:57:35.059Z,4.32
2023-01-27T11:58:34.989Z,4.36
2023-01-27T11:59:34.961Z,4.46
2023-01-27T12:00:34.946Z,4.59
2023-01-27T12:01:34.925Z,4.62
2023-01-27T12:02:34.891Z,4.69
2023-01-27T12:03:34.878Z,4.79
2023-01-27T12:04:34.920Z,4.64
2023-01-27T12:05:34.812Z,4.64
2023-01-27T12:06:34.800Z,4.76
2023-01-27T12:07:34.761Z,4.92
2023-01-27T12:08:34.775Z,4.86
2023-01-27T12:09:34.725Z,4.92
2023-01-27T12:10:34.747Z,5.23
2023-01-27T12:11:34.668Z,5.27
2023-01-27T12:12:34.645Z,5.34
2023-01-27T12:13:34.625Z,5.52
2023-01-27T12:14:34.586Z,5.86
2023-01-27T12:15:34.572Z,5.96
2023-01-27T12:16:34.535Z,6.04
2023-01-27T12:17:34.511Z,6.03
2023-01-27T12:18:34.492Z,6.11
2023-01-27T12:19:34.457Z,6.10
2023-01-27T12:20:34.443Z,5.96
2023-01-27T12:21:34.407Z,5.82
2023-01-27T12:22:34.424Z,5.59
2023-01-27T12:23:34.383Z,5.49
2023-01-27T12:24:34.377Z,5.41
2023-01-27T12:25:34.321Z,5.25
2023-01-27T12:26:34.289Z,5.05
2023-01-27T12:27:34.265Z,5.02
2023-01-27T12:28:34.262Z,4.92
2023-01-27T12:29:34.227Z,4.94
2023-01-27T12:30:34.233Z,4.92
2023-01-27T12:31:34.398Z,4.91
2023-01-27T12:32:34.149Z,4.91
2023-01-27T12:33:34.125Z,4.83
2023-01-27T12:34:34.134Z,4.77
2023-01-27T12:35:34.193Z,4.73
2023-01-27T12:36:34.082Z,4.86
2023-01-27T12:37:34.067Z,4.77
2023-01-27T12:38:34.125Z,4.76
2023-01-27T12:39:33.979Z,4.64
2023-01-27T12:40:33.990Z,4.72
2023-01-27T12:41:33.921Z,4.59
2023-01-27T12:42:33.924Z,4.65
2023-01-27T12:43:33.894Z,4.54
2023-01-27T12:44:33.844Z,4.59
2023-01-27T12:45:33.854Z,4.65
2023-01-27T12:46:33.817Z,4.70
2023-01-27T12:47:33.768Z,4.64
2023-01-27T12:48:33.746Z,4.69
2023-01-27T12:49:33.723Z,4.77
2023-01-27T12:50:33.710Z,4.86
2023-01-27T12:51:33.664Z,4.84
2023-01-27T12:52:33.653Z,4.79
2023-01-27T12:53:33.625Z,4.86
2023-01-27T12:54:33.600Z,4.89
2023-01-27T12:55:33.600Z,4.75
2023-01-27T12:56:33.559Z,4.89
2023-01-27T12:57:33.511Z,4.86
2023-01-27T12:58:33.535Z,4.94
2023-01-27T12:59:33.473Z,5.01
2023-01-27T13:00:33.472Z,5.09
2023-01-27T13:01:33.424Z,5.16
2023-01-27T13:02:33.393Z,5.22
2023-01-27T13:03:33.425Z,5.19
2023-01-27T13:04:34.874Z,5.28
2023-01-27T13:05:33.314Z,5.30
2023-01-27T13:06:33.293Z,5.31
2023-01-27T13:07:33.281Z,5.13
2023-01-27T13:08:33.238Z,5.20
2023-01-27T13:09:33.220Z,5.07
2023-01-27T13:10:33.188Z,5.07
2023-01-27T13:11:33.203Z,5.05
2023-01-27T13:12:33.172Z,5.12
2023-01-27T13:13:33.124Z,5.04
2023-01-27T13:14:33.126Z,4.98
2023-01-27T13:15:33.072Z,4.99
2023-01-27T13:16:33.079Z,5.01
2023-01-27T13:17:33.016Z,5.02
2023-01-27T13:18:32.995Z,5.05
2023-01-27T13:19:32.976Z,5.05